sensor_id;sensor_type;location;lat;lon;timestamp;P1;durP1;ratioP1;P2;durP2;ratioP2
65757;SDS011;52495;52.208;5.158;2022-12-24T00:00:56;27.05;;;4.40;;
65757;SDS011;52495;52.208;5.158;2022-12-24T00:03:23;24.08;;;4.78;;
65757;SDS011;52495;52.208;5.158;2022-12-24T00:05:50;30.48;;;4.93;;
65757;SDS011;52495;52.208;5.158;2022-12-24T00:08:17;28.50;;;4.72;;
65757;SDS011;52495;52.208;5.158;2022-12-24T00:10:44;25.42;;;5.18;;
65757;SDS011;52495;52.208;5.158;2022-12-24T00:13:14;25.25;;;4.55;;
65757;SDS011;52495;52.208;5.158;2022-12-24T00:15:42;22.27;;;4.30;;
65757;SDS011;52495;52.208;5.158;2022-12-24T00:18:09;23.83;;;4.40;;
65757;SDS011;52495;52.208;5.158;2022-12-24T00:20:36;19.25;;;4.05;;
65757;SDS011;52495;52.208;5.158;2022-12-24T00:23:03;27.92;;;4.50;;
65757;SDS011;52495;52.208;5.158;2022-12-24T00:25:30;31.52;;;5.53;;
65757;SDS011;52495;52.208;5.158;2022-12-24T00:27:57;29.90;;;4.88;;
65757;SDS011;52495;52.208;5.158;2022-12-24T00:30:24;30.50;;;4.80;;
65757;SDS011;52495;52.208;5.158;2022-12-24T00:32:52;27.45;;;5.80;;
65757;SDS011;52495;52.208;5.158;2022-12-24T00:35:19;29.52;;;6.40;;
65757;SDS011;52495;52.208;5.158;2022-12-24T00:37:46;30.65;;;4.95;;
65757;SDS011;52495;52.208;5.158;2022-12-24T00:40:14;28.30;;;4.70;;
65757;SDS011;52495;52.208;5.158;2022-12-24T00:42:42;38.30;;;5.57;;
65757;SDS011;52495;52.208;5.158;2022-12-24T00:45:10;30.33;;;4.93;;
65757;SDS011;52495;52.208;5.158;2022-12-24T00:47:37;30.67;;;5.70;;
65757;SDS011;52495;52.208;5.158;2022-12-24T00:50:07;29.17;;;5.20;;
65757;SDS011;52495;52.208;5.158;2022-12-24T00:52:34;21.48;;;5.10;;
65757;SDS011;52495;52.208;5.158;2022-12-24T00:55:01;28.83;;;5.55;;
65757;SDS011;52495;52.208;5.158;2022-12-24T00:57:29;38.15;;;5.80;;
65757;SDS011;52495;52.208;5.158;2022-12-24T00:59:56;34.10;;;5.50;;
65757;SDS011;52495;52.208;5.158;2022-12-24T01:02:23;31.85;;;5.70;;
65757;SDS011;52495;52.208;5.158;2022-12-24T01:04:50;24.70;;;5.57;;
65757;SDS011;52495;52.208;5.158;2022-12-24T01:07:41;34.72;;;5.78;;
65757;SDS011;52495;52.208;5.158;2022-12-24T01:10:09;33.13;;;6.22;;
65757;SDS011;52495;52.208;5.158;2022-12-24T01:12:37;33.95;;;5.05;;
65757;SDS011;52495;52.208;5.158;2022-12-24T01:15:08;31.30;;;5.93;;
65757;SDS011;52495;52.208;5.158;2022-12-24T01:17:36;27.33;;;5.97;;
65757;SDS011;52495;52.208;5.158;2022-12-24T01:20:03;28.20;;;5.97;;
65757;SDS011;52495;52.208;5.158;2022-12-24T01:22:32;33.42;;;5.05;;
65757;SDS011;52495;52.208;5.158;2022-12-24T01:25:00;32.83;;;5.57;;
65757;SDS011;52495;52.208;5.158;2022-12-24T01:27:28;33.80;;;6.55;;
65757;SDS011;52495;52.208;5.158;2022-12-24T01:29:57;29.85;;;5.68;;
65757;SDS011;52495;52.208;5.158;2022-12-24T01:32:23;30.15;;;5.97;;
65757;SDS011;52495;52.208;5.158;2022-12-24T01:34:50;32.08;;;5.65;;
65757;SDS011;52495;52.208;5.158;2022-12-24T01:37:17;24.90;;;5.45;;
65757;SDS011;52495;52.208;5.158;2022-12-24T01:39:44;26.77;;;6.03;;
65757;SDS011;52495;52.208;5.158;2022-12-24T01:42:16;25.05;;;4.88;;
65757;SDS011;52495;52.208;5.158;2022-12-24T01:48:10;32.70;;;6.72;;
65757;SDS011;52495;52.208;5.158;2022-12-24T01:50:47;28.55;;;7.85;;
65757;SDS011;52495;52.208;5.158;2022-12-24T01:53:16;30.92;;;6.05;;
65757;SDS011;52495;52.208;5.158;2022-12-24T01:55:43;33.50;;;6.03;;
65757;SDS011;52495;52.208;5.158;2022-12-24T01:58:13;34.72;;;6.45;;
65757;SDS011;52495;52.208;5.158;2022-12-24T02:00:43;26.38;;;5.55;;
65757;SDS011;52495;52.208;5.158;2022-12-24T02:03:10;28.40;;;5.13;;
65757;SDS011;52495;52.208;5.158;2022-12-24T02:05:39;34.88;;;6.32;;
65757;SDS011;52495;52.208;5.158;2022-12-24T02:08:15;37.72;;;6.95;;
65757;SDS011;52495;52.208;5.158;2022-12-24T02:10:43;37.75;;;6.43;;
65757;SDS011;52495;52.208;5.158;2022-12-24T02:13:10;28.83;;;5.35;;
65757;SDS011;52495;52.208;5.158;2022-12-24T02:15:43;36.90;;;6.80;;
65757;SDS011;52495;52.208;5.158;2022-12-24T02:18:19;26.67;;;5.57;;
65757;SDS011;52495;52.208;5.158;2022-12-24T02:21:02;22.52;;;5.05;;
65757;SDS011;52495;52.208;5.158;2022-12-24T02:23:56;30.00;;;5.70;;
65757;SDS011;52495;52.208;5.158;2022-12-24T02:26:41;30.42;;;6.28;;
65757;SDS011;52495;52.208;5.158;2022-12-24T02:29:30;30.15;;;5.35;;
65757;SDS011;52495;52.208;5.158;2022-12-24T02:32:18;34.20;;;6.70;;
65757;SDS011;52495;52.208;5.158;2022-12-24T02:34:50;38.30;;;5.60;;
65757;SDS011;52495;52.208;5.158;2022-12-24T02:37:21;32.63;;;5.83;;
65757;SDS011;52495;52.208;5.158;2022-12-24T02:39:51;36.38;;;5.10;;
65757;SDS011;52495;52.208;5.158;2022-12-24T02:42:23;39.47;;;6.78;;
65757;SDS011;52495;52.208;5.158;2022-12-24T02:44:53;32.13;;;6.13;;
65757;SDS011;52495;52.208;5.158;2022-12-24T02:47:25;30.90;;;6.20;;
65757;SDS011;52495;52.208;5.158;2022-12-24T02:49:53;38.35;;;6.15;;
65757;SDS011;52495;52.208;5.158;2022-12-24T02:52:27;36.05;;;6.15;;
65757;SDS011;52495;52.208;5.158;2022-12-24T02:54:55;40.20;;;6.10;;
65757;SDS011;52495;52.208;5.158;2022-12-24T02:57:25;33.60;;;6.03;;
65757;SDS011;52495;52.208;5.158;2022-12-24T03:00:00;29.45;;;6.05;;
65757;SDS011;52495;52.208;5.158;2022-12-24T03:02:38;31.75;;;5.93;;
65757;SDS011;52495;52.208;5.158;2022-12-24T03:05:18;32.33;;;5.85;;
65757;SDS011;52495;52.208;5.158;2022-12-24T03:07:55;32.30;;;5.65;;
65757;SDS011;52495;52.208;5.158;2022-12-24T03:10:30;28.88;;;5.50;;
65757;SDS011;52495;52.208;5.158;2022-12-24T03:13:14;28.58;;;5.75;;
65757;SDS011;52495;52.208;5.158;2022-12-24T03:15:45;31.05;;;5.53;;
65757;SDS011;52495;52.208;5.158;2022-12-24T03:18:16;22.38;;;4.47;;
65757;SDS011;52495;52.208;5.158;2022-12-24T03:20:45;32.55;;;5.47;;
65757;SDS011;52495;52.208;5.158;2022-12-24T03:23:15;32.33;;;5.60;;
65757;SDS011;52495;52.208;5.158;2022-12-24T03:25:42;27.02;;;5.50;;
65757;SDS011;52495;52.208;5.158;2022-12-24T03:28:11;29.88;;;4.68;;
65757;SDS011;52495;52.208;5.158;2022-12-24T03:30:40;30.98;;;5.38;;
65757;SDS011;52495;52.208;5.158;2022-12-24T03:33:08;32.30;;;5.45;;
65757;SDS011;52495;52.208;5.158;2022-12-24T03:35:36;27.02;;;5.25;;
65757;SDS011;52495;52.208;5.158;2022-12-24T03:38:03;25.33;;;5.40;;
65757;SDS011;52495;52.208;5.158;2022-12-24T03:40:30;30.15;;;3.92;;
65757;SDS011;52495;52.208;5.158;2022-12-24T03:42:57;29.08;;;5.35;;
65757;SDS011;52495;52.208;5.158;2022-12-24T03:45:24;23.60;;;5.30;;
65757;SDS011;52495;52.208;5.158;2022-12-24T03:47:51;36.30;;;5.30;;
65757;SDS011;52495;52.208;5.158;2022-12-24T03:50:17;25.17;;;5.50;;
65757;SDS011;52495;52.208;5.158;2022-12-24T03:52:46;29.52;;;6.20;;
65757;SDS011;52495;52.208;5.158;2022-12-24T03:55:13;31.83;;;5.07;;
65757;SDS011;52495;52.208;5.158;2022-12-24T03:57:42;36.20;;;5.57;;
65757;SDS011;52495;52.208;5.158;2022-12-24T04:00:09;36.53;;;12.35;;
65757;SDS011;52495;52.208;5.158;2022-12-24T04:02:39;30.33;;;6.20;;
65757;SDS011;52495;52.208;5.158;2022-12-24T04:05:06;33.17;;;6.10;;
65757;SDS011;52495;52.208;5.158;2022-12-24T04:07:34;30.60;;;5.32;;
65757;SDS011;52495;52.208;5.158;2022-12-24T04:10:03;40.85;;;5.93;;
65757;SDS011;52495;52.208;5.158;2022-12-24T04:12:30;33.10;;;6.20;;
65757;SDS011;52495;52.208;5.158;2022-12-24T04:14:56;27.08;;;5.35;;
65757;SDS011;52495;52.208;5.158;2022-12-24T04:17:23;34.65;;;6.22;;
65757;SDS011;52495;52.208;5.158;2022-12-24T04:19:50;35.63;;;6.80;;
65757;SDS011;52495;52.208;5.158;2022-12-24T04:22:17;35.15;;;6.05;;
65757;SDS011;52495;52.208;5.158;2022-12-24T04:24:43;31.90;;;5.80;;
65757;SDS011;52495;52.208;5.158;2022-12-24T04:27:13;31.63;;;5.45;;
65757;SDS011;52495;52.208;5.158;2022-12-24T04:29:40;41.15;;;5.47;;
65757;SDS011;52495;52.208;5.158;2022-12-24T04:32:07;36.42;;;6.00;;
65757;SDS011;52495;52.208;5.158;2022-12-24T04:34:35;34.47;;;6.43;;
65757;SDS011;52495;52.208;5.158;2022-12-24T04:37:02;34.05;;;6.75;;
65757;SDS011;52495;52.208;5.158;2022-12-24T04:39:29;41.95;;;7.72;;
65757;SDS011;52495;52.208;5.158;2022-12-24T04:41:55;37.85;;;6.07;;
65757;SDS011;52495;52.208;5.158;2022-12-24T04:44:23;42.75;;;7.32;;
65757;SDS011;52495;52.208;5.158;2022-12-24T04:46:50;37.53;;;5.63;;
65757;SDS011;52495;52.208;5.158;2022-12-24T04:49:17;45.58;;;7.38;;
65757;SDS011;52495;52.208;5.158;2022-12-24T04:51:44;44.78;;;7.53;;
65757;SDS011;52495;52.208;5.158;2022-12-24T04:54:13;40.10;;;6.25;;
65757;SDS011;52495;52.208;5.158;2022-12-24T04:56:39;47.50;;;6.40;;
65757;SDS011;52495;52.208;5.158;2022-12-24T04:59:06;28.70;;;6.15;;
65757;SDS011;52495;52.208;5.158;2022-12-24T05:01:34;37.00;;;6.63;;
65757;SDS011;52495;52.208;5.158;2022-12-24T05:04:01;44.35;;;7.32;;
65757;SDS011;52495;52.208;5.158;2022-12-24T05:06:28;41.42;;;6.65;;
65757;SDS011;52495;52.208;5.158;2022-12-24T05:08:59;31.58;;;5.90;;
65757;SDS011;52495;52.208;5.158;2022-12-24T05:11:25;35.88;;;5.40;;
65757;SDS011;52495;52.208;5.158;2022-12-24T05:13:52;40.40;;;6.82;;
65757;SDS011;52495;52.208;5.158;2022-12-24T05:16:19;35.75;;;6.78;;
65757;SDS011;52495;52.208;5.158;2022-12-24T05:18:49;34.25;;;7.45;;
65757;SDS011;52495;52.208;5.158;2022-12-24T05:21:17;36.10;;;6.35;;
65757;SDS011;52495;52.208;5.158;2022-12-24T05:23:45;30.17;;;6.07;;
65757;SDS011;52495;52.208;5.158;2022-12-24T05:26:35;41.63;;;6.85;;
65757;SDS011;52495;52.208;5.158;2022-12-24T05:31:32;42.08;;;6.75;;
65757;SDS011;52495;52.208;5.158;2022-12-24T05:34:01;27.70;;;5.03;;
65757;SDS011;52495;52.208;5.158;2022-12-24T05:36:28;37.67;;;5.55;;
65757;SDS011;52495;52.208;5.158;2022-12-24T05:38:59;38.45;;;5.85;;
65757;SDS011;52495;52.208;5.158;2022-12-24T05:41:26;35.45;;;5.93;;
65757;SDS011;52495;52.208;5.158;2022-12-24T05:43:53;32.20;;;6.72;;
65757;SDS011;52495;52.208;5.158;2022-12-24T05:46:20;26.98;;;6.22;;
65757;SDS011;52495;52.208;5.158;2022-12-24T05:48:48;40.42;;;5.78;;
65757;SDS011;52495;52.208;5.158;2022-12-24T05:51:17;38.47;;;6.95;;
65757;SDS011;52495;52.208;5.158;2022-12-24T05:53:46;34.85;;;5.68;;
65757;SDS011;52495;52.208;5.158;2022-12-24T05:56:15;32.95;;;5.72;;
65757;SDS011;52495;52.208;5.158;2022-12-24T05:58:44;27.00;;;5.78;;
65757;SDS011;52495;52.208;5.158;2022-12-24T06:01:12;32.55;;;6.07;;
65757;SDS011;52495;52.208;5.158;2022-12-24T06:03:39;31.95;;;6.07;;
65757;SDS011;52495;52.208;5.158;2022-12-24T06:06:07;31.98;;;5.40;;
65757;SDS011;52495;52.208;5.158;2022-12-24T06:08:37;33.42;;;5.88;;
65757;SDS011;52495;52.208;5.158;2022-12-24T06:11:06;29.17;;;5.22;;
65757;SDS011;52495;52.208;5.158;2022-12-24T06:13:36;43.35;;;6.45;;
65757;SDS011;52495;52.208;5.158;2022-12-24T06:16:04;36.17;;;5.68;;
65757;SDS011;52495;52.208;5.158;2022-12-24T06:18:38;35.95;;;5.60;;
65757;SDS011;52495;52.208;5.158;2022-12-24T06:21:05;37.60;;;5.90;;
65757;SDS011;52495;52.208;5.158;2022-12-24T06:23:33;40.53;;;5.55;;
65757;SDS011;52495;52.208;5.158;2022-12-24T06:26:03;35.88;;;5.93;;
65757;SDS011;52495;52.208;5.158;2022-12-24T06:28:31;30.55;;;5.78;;
65757;SDS011;52495;52.208;5.158;2022-12-24T06:30:59;32.55;;;7.03;;
65757;SDS011;52495;52.208;5.158;2022-12-24T06:33:26;28.75;;;6.60;;
65757;SDS011;52495;52.208;5.158;2022-12-24T06:35:53;32.78;;;6.10;;
65757;SDS011;52495;52.208;5.158;2022-12-24T06:38:20;39.85;;;7.22;;
65757;SDS011;52495;52.208;5.158;2022-12-24T06:40:47;40.72;;;6.32;;
65757;SDS011;52495;52.208;5.158;2022-12-24T06:43:15;39.25;;;5.88;;
65757;SDS011;52495;52.208;5.158;2022-12-24T06:45:43;36.53;;;6.30;;
65757;SDS011;52495;52.208;5.158;2022-12-24T06:48:11;41.70;;;7.13;;
65757;SDS011;52495;52.208;5.158;2022-12-24T06:50:38;30.83;;;6.07;;
65757;SDS011;52495;52.208;5.158;2022-12-24T06:53:05;35.75;;;6.72;;
65757;SDS011;52495;52.208;5.158;2022-12-24T06:55:32;41.83;;;6.07;;
65757;SDS011;52495;52.208;5.158;2022-12-24T06:57:59;36.97;;;6.03;;
65757;SDS011;52495;52.208;5.158;2022-12-24T07:00:27;43.97;;;7.07;;
65757;SDS011;52495;52.208;5.158;2022-12-24T07:02:54;33.63;;;5.65;;
65757;SDS011;52495;52.208;5.158;2022-12-24T07:05:20;34.17;;;6.18;;
65757;SDS011;52495;52.208;5.158;2022-12-24T07:07:47;40.03;;;6.82;;
65757;SDS011;52495;52.208;5.158;2022-12-24T07:10:15;36.20;;;6.40;;
65757;SDS011;52495;52.208;5.158;2022-12-24T07:12:42;35.17;;;6.13;;
65757;SDS011;52495;52.208;5.158;2022-12-24T07:15:09;30.42;;;5.32;;
65757;SDS011;52495;52.208;5.158;2022-12-24T07:17:38;37.40;;;6.25;;
65757;SDS011;52495;52.208;5.158;2022-12-24T07:20:06;43.05;;;6.78;;
65757;SDS011;52495;52.208;5.158;2022-12-24T07:22:35;41.38;;;6.13;;
65757;SDS011;52495;52.208;5.158;2022-12-24T07:25:02;39.47;;;6.53;;
65757;SDS011;52495;52.208;5.158;2022-12-24T07:27:29;41.72;;;7.03;;
65757;SDS011;52495;52.208;5.158;2022-12-24T07:29:56;34.78;;;6.72;;
65757;SDS011;52495;52.208;5.158;2022-12-24T07:32:22;47.13;;;7.38;;
65757;SDS011;52495;52.208;5.158;2022-12-24T07:34:50;34.50;;;5.90;;
65757;SDS011;52495;52.208;5.158;2022-12-24T07:37:17;36.83;;;6.70;;
65757;SDS011;52495;52.208;5.158;2022-12-24T07:39:44;35.22;;;6.00;;
65757;SDS011;52495;52.208;5.158;2022-12-24T07:42:11;39.55;;;6.10;;
65757;SDS011;52495;52.208;5.158;2022-12-24T07:44:38;39.40;;;6.68;;
65757;SDS011;52495;52.208;5.158;2022-12-24T07:47:05;44.70;;;7.68;;
65757;SDS011;52495;52.208;5.158;2022-12-24T07:49:32;39.28;;;8.15;;
65757;SDS011;52495;52.208;5.158;2022-12-24T07:52:00;46.88;;;7.35;;
65757;SDS011;52495;52.208;5.158;2022-12-24T07:54:27;46.20;;;7.90;;
65757;SDS011;52495;52.208;5.158;2022-12-24T07:56:54;37.75;;;7.85;;
65757;SDS011;52495;52.208;5.158;2022-12-24T07:59:21;43.80;;;7.53;;
65757;SDS011;52495;52.208;5.158;2022-12-24T08:01:47;41.88;;;7.10;;
65757;SDS011;52495;52.208;5.158;2022-12-24T08:04:14;46.55;;;7.38;;
65757;SDS011;52495;52.208;5.158;2022-12-24T08:06:41;49.78;;;7.68;;
65757;SDS011;52495;52.208;5.158;2022-12-24T08:09:09;53.60;;;8.80;;
65757;SDS011;52495;52.208;5.158;2022-12-24T08:11:38;43.60;;;6.72;;
65757;SDS011;52495;52.208;5.158;2022-12-24T08:14:05;40.75;;;7.15;;
65757;SDS011;52495;52.208;5.158;2022-12-24T08:16:32;41.38;;;7.10;;
65757;SDS011;52495;52.208;5.158;2022-12-24T08:18:58;47.22;;;8.20;;
65757;SDS011;52495;52.208;5.158;2022-12-24T08:21:25;49.25;;;8.15;;
65757;SDS011;52495;52.208;5.158;2022-12-24T08:23:52;42.53;;;7.55;;
65757;SDS011;52495;52.208;5.158;2022-12-24T08:26:20;43.90;;;7.50;;
65757;SDS011;52495;52.208;5.158;2022-12-24T08:28:47;40.00;;;7.90;;
65757;SDS011;52495;52.208;5.158;2022-12-24T08:31:14;46.65;;;7.75;;
65757;SDS011;52495;52.208;5.158;2022-12-24T08:33:41;45.20;;;8.88;;
65757;SDS011;52495;52.208;5.158;2022-12-24T08:36:08;38.03;;;7.72;;
65757;SDS011;52495;52.208;5.158;2022-12-24T08:38:38;48.28;;;7.15;;
65757;SDS011;52495;52.208;5.158;2022-12-24T08:41:05;40.40;;;6.63;;
65757;SDS011;52495;52.208;5.158;2022-12-24T08:43:33;48.92;;;7.88;;
65757;SDS011;52495;52.208;5.158;2022-12-24T08:46:00;40.92;;;7.30;;
65757;SDS011;52495;52.208;5.158;2022-12-24T08:48:29;35.63;;;6.72;;
65757;SDS011;52495;52.208;5.158;2022-12-24T08:50:56;38.72;;;7.28;;
65757;SDS011;52495;52.208;5.158;2022-12-24T08:53:22;34.53;;;7.55;;
65757;SDS011;52495;52.208;5.158;2022-12-24T08:55:49;45.30;;;7.95;;
65757;SDS011;52495;52.208;5.158;2022-12-24T08:58:16;44.00;;;8.25;;
65757;SDS011;52495;52.208;5.158;2022-12-24T09:00:45;45.85;;;7.75;;
65757;SDS011;52495;52.208;5.158;2022-12-24T09:03:12;36.58;;;6.35;;
65757;SDS011;52495;52.208;5.158;2022-12-24T09:05:40;36.17;;;6.70;;
65757;SDS011;52495;52.208;5.158;2022-12-24T09:08:07;42.88;;;6.70;;
65757;SDS011;52495;52.208;5.158;2022-12-24T09:10:33;42.10;;;6.30;;
65757;SDS011;52495;52.208;5.158;2022-12-24T09:13:00;37.10;;;6.20;;
65757;SDS011;52495;52.208;5.158;2022-12-24T09:15:27;44.38;;;7.95;;
65757;SDS011;52495;52.208;5.158;2022-12-24T09:17:55;44.72;;;7.80;;
65757;SDS011;52495;52.208;5.158;2022-12-24T09:20:22;38.42;;;7.38;;
65757;SDS011;52495;52.208;5.158;2022-12-24T09:22:49;32.30;;;6.25;;
65757;SDS011;52495;52.208;5.158;2022-12-24T09:25:16;36.53;;;6.90;;
65757;SDS011;52495;52.208;5.158;2022-12-24T09:27:43;39.45;;;7.32;;
65757;SDS011;52495;52.208;5.158;2022-12-24T09:30:10;36.42;;;8.38;;
65757;SDS011;52495;52.208;5.158;2022-12-24T09:32:40;41.50;;;6.75;;
65757;SDS011;52495;52.208;5.158;2022-12-24T09:35:09;40.85;;;6.93;;
65757;SDS011;52495;52.208;5.158;2022-12-24T09:37:36;40.28;;;8.32;;
65757;SDS011;52495;52.208;5.158;2022-12-24T09:40:03;43.42;;;6.30;;
65757;SDS011;52495;52.208;5.158;2022-12-24T09:42:34;45.97;;;8.73;;
65757;SDS011;52495;52.208;5.158;2022-12-24T09:45:13;41.72;;;6.75;;
65757;SDS011;52495;52.208;5.158;2022-12-24T09:47:45;45.55;;;8.52;;
65757;SDS011;52495;52.208;5.158;2022-12-24T09:50:25;39.80;;;6.68;;
65757;SDS011;52495;52.208;5.158;2022-12-24T09:52:57;42.72;;;6.25;;
65757;SDS011;52495;52.208;5.158;2022-12-24T09:55:29;31.10;;;6.43;;
65757;SDS011;52495;52.208;5.158;2022-12-24T09:57:59;40.53;;;6.95;;
65757;SDS011;52495;52.208;5.158;2022-12-24T10:00:31;37.53;;;6.97;;
65757;SDS011;52495;52.208;5.158;2022-12-24T10:03:08;36.33;;;6.88;;
65757;SDS011;52495;52.208;5.158;2022-12-24T10:05:42;41.28;;;6.80;;
65757;SDS011;52495;52.208;5.158;2022-12-24T10:08:19;35.60;;;5.75;;
65757;SDS011;52495;52.208;5.158;2022-12-24T10:10:57;30.23;;;6.85;;
65757;SDS011;52495;52.208;5.158;2022-12-24T10:13:32;42.50;;;6.70;;
65757;SDS011;52495;52.208;5.158;2022-12-24T10:16:09;39.53;;;6.97;;
65757;SDS011;52495;52.208;5.158;2022-12-24T10:18:49;34.67;;;7.43;;
65757;SDS011;52495;52.208;5.158;2022-12-24T10:21:25;38.13;;;6.32;;
65757;SDS011;52495;52.208;5.158;2022-12-24T10:24:03;31.63;;;5.30;;
65757;SDS011;52495;52.208;5.158;2022-12-24T10:26:34;42.53;;;7.45;;
65757;SDS011;52495;52.208;5.158;2022-12-24T10:29:05;39.45;;;6.28;;
65757;SDS011;52495;52.208;5.158;2022-12-24T10:31:40;31.48;;;5.75;;
65757;SDS011;52495;52.208;5.158;2022-12-24T10:34:14;38.17;;;6.93;;
65757;SDS011;52495;52.208;5.158;2022-12-24T10:36:46;36.25;;;5.47;;
65757;SDS011;52495;52.208;5.158;2022-12-24T10:39:15;30.92;;;5.90;;
65757;SDS011;52495;52.208;5.158;2022-12-24T10:41:44;31.58;;;5.93;;
65757;SDS011;52495;52.208;5.158;2022-12-24T10:44:14;35.13;;;6.65;;
65757;SDS011;52495;52.208;5.158;2022-12-24T10:46:43;36.83;;;6.05;;
65757;SDS011;52495;52.208;5.158;2022-12-24T10:49:13;32.40;;;6.72;;
65757;SDS011;52495;52.208;5.158;2022-12-24T10:51:42;31.23;;;5.72;;
65757;SDS011;52495;52.208;5.158;2022-12-24T10:54:19;35.83;;;6.22;;
65757;SDS011;52495;52.208;5.158;2022-12-24T10:59:25;31.20;;;5.93;;
65757;SDS011;52495;52.208;5.158;2022-12-24T11:01:57;42.63;;;6.38;;
65757;SDS011;52495;52.208;5.158;2022-12-24T11:04:26;37.17;;;6.30;;
65757;SDS011;52495;52.208;5.158;2022-12-24T11:06:55;34.53;;;5.80;;
65757;SDS011;52495;52.208;5.158;2022-12-24T11:09:28;32.55;;;5.95;;
65757;SDS011;52495;52.208;5.158;2022-12-24T11:11:57;29.85;;;5.70;;
65757;SDS011;52495;52.208;5.158;2022-12-24T11:14:26;25.33;;;5.22;;
65757;SDS011;52495;52.208;5.158;2022-12-24T11:16:58;34.08;;;5.90;;
65757;SDS011;52495;52.208;5.158;2022-12-24T11:19:28;31.40;;;5.60;;
65757;SDS011;52495;52.208;5.158;2022-12-24T11:21:57;32.20;;;6.47;;
65757;SDS011;52495;52.208;5.158;2022-12-24T11:24:28;30.73;;;4.57;;
65757;SDS011;52495;52.208;5.158;2022-12-24T11:29:51;29.13;;;5.00;;
65757;SDS011;52495;52.208;5.158;2022-12-24T11:32:19;32.00;;;5.65;;
65757;SDS011;52495;52.208;5.158;2022-12-24T11:34:47;32.03;;;6.18;;
65757;SDS011;52495;52.208;5.158;2022-12-24T11:37:15;30.10;;;5.68;;
65757;SDS011;52495;52.208;5.158;2022-12-24T11:39:47;29.10;;;5.50;;
65757;SDS011;52495;52.208;5.158;2022-12-24T11:42:21;33.80;;;5.43;;
65757;SDS011;52495;52.208;5.158;2022-12-24T11:44:56;26.38;;;4.40;;
65757;SDS011;52495;52.208;5.158;2022-12-24T11:47:42;25.60;;;5.63;;
65757;SDS011;52495;52.208;5.158;2022-12-24T11:50:24;25.95;;;5.35;;
65757;SDS011;52495;52.208;5.158;2022-12-24T11:52:54;30.23;;;5.85;;
65757;SDS011;52495;52.208;5.158;2022-12-24T11:55:31;29.90;;;5.32;;
65757;SDS011;52495;52.208;5.158;2022-12-24T11:58:03;30.42;;;5.45;;
65757;SDS011;52495;52.208;5.158;2022-12-24T12:00:39;35.25;;;6.25;;
65757;SDS011;52495;52.208;5.158;2022-12-24T12:03:09;26.52;;;5.32;;
65757;SDS011;52495;52.208;5.158;2022-12-24T12:05:47;29.48;;;5.30;;
65757;SDS011;52495;52.208;5.158;2022-12-24T12:08:17;30.42;;;5.93;;
65757;SDS011;52495;52.208;5.158;2022-12-24T12:10:48;34.40;;;5.93;;
65757;SDS011;52495;52.208;5.158;2022-12-24T12:13:18;37.75;;;5.88;;
65757;SDS011;52495;52.208;5.158;2022-12-24T12:15:49;30.58;;;5.32;;
65757;SDS011;52495;52.208;5.158;2022-12-24T12:18:24;24.50;;;4.50;;
65757;SDS011;52495;52.208;5.158;2022-12-24T12:20:55;27.30;;;4.85;;
65757;SDS011;52495;52.208;5.158;2022-12-24T12:23:29;24.20;;;5.47;;
65757;SDS011;52495;52.208;5.158;2022-12-24T12:26:03;31.35;;;5.32;;
65757;SDS011;52495;52.208;5.158;2022-12-24T12:28:36;23.48;;;5.20;;
65757;SDS011;52495;52.208;5.158;2022-12-24T12:31:09;24.52;;;4.47;;
65757;SDS011;52495;52.208;5.158;2022-12-24T12:33:41;31.30;;;6.38;;
65757;SDS011;52495;52.208;5.158;2022-12-24T12:36:14;25.08;;;4.82;;
65757;SDS011;52495;52.208;5.158;2022-12-24T12:38:44;31.02;;;5.45;;
65757;SDS011;52495;52.208;5.158;2022-12-24T12:41:16;22.83;;;4.68;;
65757;SDS011;52495;52.208;5.158;2022-12-24T12:44:08;30.90;;;5.25;;
65757;SDS011;52495;52.208;5.158;2022-12-24T12:47:10;26.30;;;4.57;;
65757;SDS011;52495;52.208;5.158;2022-12-24T12:49:49;29.77;;;4.70;;
65757;SDS011;52495;52.208;5.158;2022-12-24T12:52:32;25.83;;;4.68;;
65757;SDS011;52495;52.208;5.158;2022-12-24T12:55:14;26.13;;;4.63;;
65757;SDS011;52495;52.208;5.158;2022-12-24T12:57:53;28.88;;;5.47;;
65757;SDS011;52495;52.208;5.158;2022-12-24T13:00:25;27.58;;;5.30;;
65757;SDS011;52495;52.208;5.158;2022-12-24T13:02:59;26.48;;;5.22;;
65757;SDS011;52495;52.208;5.158;2022-12-24T13:08:53;23.65;;;4.90;;
65757;SDS011;52495;52.208;5.158;2022-12-24T13:11:49;26.17;;;5.07;;
65757;SDS011;52495;52.208;5.158;2022-12-24T13:14:32;23.52;;;4.38;;
65757;SDS011;52495;52.208;5.158;2022-12-24T13:20:24;32.42;;;5.57;;
65757;SDS011;52495;52.208;5.158;2022-12-24T13:22:56;23.63;;;5.03;;
65757;SDS011;52495;52.208;5.158;2022-12-24T13:25:29;21.83;;;4.07;;
65757;SDS011;52495;52.208;5.158;2022-12-24T13:33:59;25.33;;;5.15;;
65757;SDS011;52495;52.208;5.158;2022-12-24T13:42:49;25.38;;;4.70;;
65757;SDS011;52495;52.208;5.158;2022-12-24T13:48:31;26.70;;;4.72;;
65757;SDS011;52495;52.208;5.158;2022-12-24T13:50:59;25.45;;;5.28;;
65757;SDS011;52495;52.208;5.158;2022-12-24T13:53:43;23.70;;;4.88;;
65757;SDS011;52495;52.208;5.158;2022-12-24T13:56:19;22.95;;;4.15;;
65757;SDS011;52495;52.208;5.158;2022-12-24T13:58:52;22.35;;;4.85;;
65757;SDS011;52495;52.208;5.158;2022-12-24T14:01:34;22.83;;;4.43;;
65757;SDS011;52495;52.208;5.158;2022-12-24T14:07:46;27.90;;;5.45;;
65757;SDS011;52495;52.208;5.158;2022-12-24T14:10:18;28.65;;;4.70;;
65757;SDS011;52495;52.208;5.158;2022-12-24T14:12:49;29.50;;;4.63;;
65757;SDS011;52495;52.208;5.158;2022-12-24T14:18:25;25.73;;;4.40;;
65757;SDS011;52495;52.208;5.158;2022-12-24T14:20:54;24.45;;;5.03;;
65757;SDS011;52495;52.208;5.158;2022-12-24T14:23:27;26.90;;;5.43;;
65757;SDS011;52495;52.208;5.158;2022-12-24T14:26:00;24.38;;;4.35;;
65757;SDS011;52495;52.208;5.158;2022-12-24T14:28:30;31.77;;;5.68;;
65757;SDS011;52495;52.208;5.158;2022-12-24T14:33:30;28.20;;;6.25;;
65757;SDS011;52495;52.208;5.158;2022-12-24T14:35:57;28.10;;;4.50;;
65757;SDS011;52495;52.208;5.158;2022-12-24T14:38:27;24.00;;;4.90;;
65757;SDS011;52495;52.208;5.158;2022-12-24T14:40:58;21.05;;;4.60;;
65757;SDS011;52495;52.208;5.158;2022-12-24T14:43:34;23.75;;;4.22;;
65757;SDS011;52495;52.208;5.158;2022-12-24T14:46:16;22.02;;;4.95;;
65757;SDS011;52495;52.208;5.158;2022-12-24T14:48:51;23.88;;;4.85;;
65757;SDS011;52495;52.208;5.158;2022-12-24T14:51:22;27.52;;;5.72;;
65757;SDS011;52495;52.208;5.158;2022-12-24T14:54:04;22.20;;;4.32;;
65757;SDS011;52495;52.208;5.158;2022-12-24T14:57:05;24.52;;;4.88;;
65757;SDS011;52495;52.208;5.158;2022-12-24T14:59:39;26.98;;;4.75;;
65757;SDS011;52495;52.208;5.158;2022-12-24T15:02:22;28.63;;;5.18;;
65757;SDS011;52495;52.208;5.158;2022-12-24T15:05:05;26.58;;;4.43;;
65757;SDS011;52495;52.208;5.158;2022-12-24T15:07:37;30.40;;;5.68;;
65757;SDS011;52495;52.208;5.158;2022-12-24T15:10:19;25.17;;;4.97;;
65757;SDS011;52495;52.208;5.158;2022-12-24T15:12:50;28.63;;;5.53;;
65757;SDS011;52495;52.208;5.158;2022-12-24T15:15:19;25.50;;;5.70;;
65757;SDS011;52495;52.208;5.158;2022-12-24T15:17:46;26.75;;;6.72;;
65757;SDS011;52495;52.208;5.158;2022-12-24T15:20:13;27.07;;;6.77;;
65757;SDS011;52495;52.208;5.158;2022-12-24T15:22:43;27.05;;;6.10;;
65757;SDS011;52495;52.208;5.158;2022-12-24T15:25:20;28.13;;;6.13;;
65757;SDS011;52495;52.208;5.158;2022-12-24T19:21:51;37.38;;;13.80;;
65757;SDS011;52495;52.208;5.158;2022-12-24T19:24:17;40.05;;;13.07;;
65757;SDS011;52495;52.208;5.158;2022-12-24T19:26:44;45.83;;;14.20;;
65757;SDS011;52495;52.208;5.158;2022-12-24T19:29:13;40.95;;;14.13;;